Time;durP1;ratioP1;P1;durP2;ratioP2;P2;SDS_P1;SDS_P2;PMS_P1;PMS_P2;Temp;Humidity;BMP_temperature;BMP_pressure;BME280_temperature;BME280_humidity;BME280_pressure;Samples;Min_cycle;Max_cycle;Signal;HPM_P1;HPM_P2
2023/12/10 00:00:19;;;;;;;58.80;36.00;;;;;;;0.31;95.38;99859.63;107424;275;156037;-51
2023/12/10 00:03:13;;;;;;;56.30;34.90;;;;;;;0.31;95.41;99857.52;107610;275;94131;-54
2023/12/10 00:05:44;;;;;;;59.30;35.10;;;;;;;0.30;95.39;99855.98;107454;275;155702;-54
2023/12/10 00:08:15;;;;;;;59.00;35.30;;;;;;;0.32;95.27;99858.13;107506;275;123708;-58
2023/12/10 00:10:47;;;;;;;59.60;34.60;;;;;;;0.35;95.23;99856.65;107509;275;104571;-58
2023/12/10 00:13:19;;;;;;;57.60;34.20;;;;;;;0.34;95.22;99851.80;107358;275;155955;-54
2023/12/10 00:15:53;;;;;;;61.90;36.10;;;;;;;0.36;95.12;99850.66;107630;275;95783;-53
2023/12/10 00:18:28;;;;;;;57.50;34.20;;;;;;;0.33;95.26;99848.85;107384;275;154957;-53
2023/12/10 00:21:02;;;;;;;57.80;34.50;;;;;;;0.33;95.18;99845.48;107598;275;120033;-53
2023/12/10 00:23:33;;;;;;;55.00;32.00;;;;;;;0.33;95.19;99839.42;107518;275;155279;-54
2023/12/10 00:26:07;;;;;;;54.70;34.00;;;;;;;0.34;95.17;99838.86;107529;275;114098;-54
2023/12/10 00:28:41;;;;;;;59.10;34.60;;;;;;;0.36;95.16;99834.02;107640;275;95167;-52
2023/12/10 00:31:24;;;;;;;59.00;35.30;;;;;;;0.41;95.09;99824.91;107381;275;155714;-52
2023/12/10 00:33:58;;;;;;;64.30;37.70;;;;;;;0.42;94.99;99823.90;107637;275;120266;-57
2023/12/10 00:36:30;;;;;;;65.10;36.50;;;;;;;0.39;95.07;99822.99;107440;275;155790;-55
2023/12/10 00:39:00;;;;;;;61.80;36.00;;;;;;;0.39;95.13;99823.63;107579;275;114841;-55
2023/12/10 00:41:34;;;;;;;58.90;35.70;;;;;;;0.42;95.07;99825.36;107303;277;154317;-53
2023/12/10 00:44:06;;;;;;;63.60;37.20;;;;;;;0.38;95.20;99830.82;107558;275;96792;-53
2023/12/10 00:46:46;;;;;;;60.20;37.00;;;;;;;0.39;95.08;99834.99;107692;275;120667;-58
2023/12/10 00:49:18;;;;;;;60.30;36.80;;;;;;;0.39;95.19;99833.02;107346;275;154744;-57
2023/12/10 00:51:51;;;;;;;60.10;36.90;;;;;;;0.45;95.04;99839.77;107626;275;113652;-54
2023/12/10 00:54:24;;;;;;;63.20;37.80;;;;;;;0.47;95.02;99839.73;107473;275;155850;-53
2023/12/10 00:56:57;;;;;;;61.50;37.20;;;;;;;0.51;94.99;99841.20;107881;275;97155;-55
2023/12/10 00:59:29;;;;;;;62.60;38.50;;;;;;;0.52;95.08;99847.46;107724;275;155764;-55
2023/12/10 01:02:00;;;;;;;62.50;39.70;;;;;;;0.58;94.96;99855.92;107556;275;106673;-52
2023/12/10 01:04:38;;;;;;;62.40;38.10;;;;;;;0.57;94.87;99855.98;107618;275;114103;-53
2023/12/10 01:07:11;;;;;;;57.80;34.50;;;;;;;0.58;94.86;99855.02;107339;275;154836;-55
2023/12/10 01:09:45;;;;;;;62.80;37.20;;;;;;;0.60;94.87;99856.27;107640;276;97517;-55
2023/12/10 01:12:17;;;;;;;65.20;39.00;;;;;;;0.61;94.88;99848.61;107455;275;155289;-57
2023/12/10 01:14:49;;;;;;;60.70;37.20;;;;;;;0.66;94.83;99848.73;107574;275;105857;-57
2023/12/10 01:17:22;;;;;;;59.10;37.00;;;;;;;0.67;94.64;99850.52;107462;275;154807;-57
2023/12/10 01:19:53;;;;;;;61.10;38.40;;;;;;;0.69;94.74;99850.02;107484;275;96016;-58
2023/12/10 01:22:30;;;;;;;68.60;40.00;;;;;;;0.69;94.67;99849.63;107687;275;97213;-57
2023/12/10 01:25:06;;;;;;;66.40;38.20;;;;;;;0.66;94.83;99848.84;107356;275;154580;-57
2023/12/10 01:27:37;;;;;;;70.20;39.00;;;;;;;0.68;94.84;99849.20;107630;275;104535;-56
2023/12/10 01:30:11;;;;;;;64.00;37.10;;;;;;;0.69;94.70;99846.27;107455;275;155747;-56
2023/12/10 01:32:43;;;;;;;63.10;37.60;;;;;;;0.64;94.70;99838.23;107625;276;96016;-57
2023/12/10 01:35:17;;;;;;;68.70;39.80;;;;;;;0.61;94.83;99833.37;107545;276;154575;-56
2023/12/10 01:37:51;;;;;;;66.10;39.30;;;;;;;0.55;94.87;99830.30;107531;276;120926;-56
2023/12/10 01:40:24;;;;;;;61.60;36.90;;;;;;;0.60;94.79;99827.46;107642;276;104681;-56
2023/12/10 01:42:55;;;;;;;60.80;35.50;;;;;;;0.57;94.91;99833.14;107336;276;156193;-52
2023/12/10 01:45:26;;;;;;;64.20;38.20;;;;;;;0.56;94.85;99842.45;107667;275;93732;-51
2023/12/10 01:47:58;;;;;;;65.20;37.30;;;;;;;0.58;94.87;99844.21;107515;276;155110;-52
2023/12/10 01:50:31;;;;;;;62.50;37.20;;;;;;;0.61;94.63;99842.20;107552;276;119511;-53
2023/12/10 01:53:04;;;;;;;61.80;36.20;;;;;;;0.59;94.75;99838.80;107697;276;106298;-53
2023/12/10 01:55:38;;;;;;;65.20;36.40;;;;;;;0.56;94.82;99841.26;107541;276;112942;-53
2023/12/10 01:58:11;;;;;;;60.10;35.60;;;;;;;0.56;94.90;99843.48;107663;276;95018;-53
2023/12/10 02:00:49;;;;;;;63.30;36.40;;;;;;;0.56;94.86;99847.94;107396;276;155641;-53
2023/12/10 02:03:24;;;;;;;64.00;37.80;;;;;;;0.57;94.71;99845.89;107697;276;120125;-54
2023/12/10 02:06:04;;;;;;;63.10;36.20;;;;;;;0.56;94.72;99852.39;107453;276;154592;-53
2023/12/10 02:08:40;;;;;;;59.90;35.60;;;;;;;0.55;94.73;99851.91;107628;276;114434;-53
2023/12/10 02:11:15;;;;;;;63.30;37.10;;;;;;;0.55;94.79;99854.63;107493;276;156393;-53
2023/12/10 02:13:50;;;;;;;64.70;37.10;;;;;;;0.47;94.92;99851.97;107524;276;95609;-57
2023/12/10 02:16:23;;;;;;;62.80;36.20;;;;;;;0.46;95.04;99855.27;107710;276;120886;-52
2023/12/10 02:18:59;;;;;;;63.20;35.00;;;;;;;0.46;95.07;99843.08;107409;276;155061;-51
2023/12/10 02:21:32;;;;;;;61.80;37.20;;;;;;;0.50;94.90;99838.74;107687;275;113963;-51
2023/12/10 02:24:10;;;;;;;60.10;35.20;;;;;;;0.51;94.94;99838.66;107503;275;154815;-52
2023/12/10 02:26:44;;;;;;;56.20;33.40;;;;;;;0.56;94.86;99834.17;107598;276;97737;-57
2023/12/10 02:29:19;;;;;;;52.40;30.40;;;;;;;0.48;94.93;99833.81;107500;276;154706;-57
2023/12/10 02:31:49;;;;;;;;;;;;;;;0.42;94.98;99836.88;107519;276;104370;-57
2023/12/10 02:34:20;;;;;;;57.10;32.30;;;;;;;0.38;94.90;99839.21;107691;276;114934;-56
2023/12/10 02:36:55;;;;;;;52.90;31.60;;;;;;;0.37;94.88;99838.59;107543;276;155105;-52
2023/12/10 02:39:30;;;;;;;53.50;31.90;;;;;;;0.40;94.80;99833.00;107915;275;97369;-53
2023/12/10 02:42:03;;;;;;;;;;;;;;;0.37;94.87;99822.77;107655;275;155298;-57
2023/12/10 02:44:35;;;;;;;51.30;30.10;;;;;;;0.37;94.86;99816.44;107563;276;104544;-57
2023/12/10 02:47:09;;;;;;;55.30;31.70;;;;;;;0.34;94.77;99812.07;107543;275;155128;-58
2023/12/10 02:49:40;;;;;;;54.40;32.90;;;;;;;0.33;94.86;99807.63;107503;276;95232;-57
2023/12/10 02:52:12;;;;;;;53.90;32.00;;;;;;;0.33;94.82;99802.09;107651;276;97969;-57
2023/12/10 02:54:49;;;;;;;54.20;31.50;;;;;;;0.35;94.75;99798.92;107426;276;154642;-57
2023/12/10 02:57:23;;;;;;;52.90;31.80;;;;;;;0.33;94.68;99795.21;107626;276;106154;-52
2023/12/10 02:59:55;;;;;;;54.90;32.90;;;;;;;0.32;94.57;99791.74;107457;275;155340;-52
2023/12/10 03:02:26;;;;;;;50.70;30.10;;;;;;;0.27;94.49;99786.52;107493;276;95115;-57
2023/12/10 03:04:57;;;;;;;53.20;30.70;;;;;;;0.27;94.48;99783.16;107670;275;97766;-57
2023/12/10 03:07:33;;;;;;;49.20;29.90;;;;;;;0.27;94.40;99782.49;107450;275;154501;-55
2023/12/10 03:10:06;;;;;;;49.40;29.30;;;;;;;0.26;94.25;99781.13;107656;275;105285;-55
2023/12/10 03:12:37;;;;;;;51.60;29.50;;;;;;;0.28;94.24;99780.45;107412;275;155113;-56
2023/12/10 03:15:11;;;;;;;49.70;29.00;;;;;;;0.31;94.24;99783.52;107586;276;95918;-56
2023/12/10 03:17:42;;;;;;;45.20;27.30;;;;;;;0.27;94.20;99780.48;107476;276;154918;-56
2023/12/10 03:20:14;;;;;;;49.80;28.80;;;;;;;0.22;94.16;99775.44;107552;275;121283;-57
2023/12/10 03:22:47;;;;;;;48.50;27.00;;;;;;;0.20;94.12;99768.45;107680;275;105029;-56
2023/12/10 03:25:18;;;;;;;48.20;27.20;;;;;;;0.12;93.98;99767.18;107350;276;154882;-56
2023/12/10 03:27:51;;;;;;;46.60;27.20;;;;;;;0.11;93.98;99767.36;107640;275;94574;-51
2023/12/10 03:30:30;;;;;;;43.10;25.50;;;;;;;0.07;93.96;99775.64;107414;275;154549;-51
2023/12/10 03:33:02;;;;;;;46.50;27.60;;;;;;;-0.01;94.08;99776.56;107635;276;120730;-52
2023/12/10 03:35:35;;;;;;;44.70;25.10;;;;;;;-0.05;94.14;99774.90;107506;275;156179;-52
2023/12/10 03:38:10;;;;;;;46.00;26.20;;;;;;;-0.08;94.14;99759.42;107507;275;114179;-53
2023/12/10 03:40:43;;;;;;;39.40;24.20;;;;;;;-0.06;94.15;99761.73;107652;275;94966;-53
2023/12/10 03:43:20;;;;;;;39.20;23.30;;;;;;;-0.09;94.17;99752.80;107400;275;155873;-53
2023/12/10 03:45:54;;;;;;;42.40;26.50;;;;;;;-0.12;94.21;99745.81;107660;275;121222;-53
2023/12/10 03:48:27;;;;;;;41.40;24.80;;;;;;;-0.08;94.22;99739.67;107414;276;156003;-52
2023/12/10 03:51:03;;;;;;;45.50;25.50;;;;;;;-0.10;94.18;99736.27;107591;276;112862;-52
2023/12/10 03:53:39;;;;;;;39.70;23.90;;;;;;;-0.08;94.05;99741.56;107546;275;155197;-53
2023/12/10 03:56:16;;;;;;;38.20;23.20;;;;;;;-0.07;94.07;99744.36;107574;275;97678;-53
2023/12/10 03:58:50;;;;;;;42.60;25.70;;;;;;;-0.10;94.07;99744.98;107624;275;121115;-56
2023/12/10 04:01:24;;;;;;;42.80;24.90;;;;;;;-0.12;94.19;99740.89;107545;275;156038;-55
2023/12/10 04:04:07;;;;;;;42.50;25.50;;;;;;;-0.10;94.13;99749.39;107900;275;112308;-55
2023/12/10 04:06:42;;;;;;;42.80;24.10;;;;;;;-0.06;94.12;99748.09;107497;275;155511;-53
2023/12/10 04:09:18;;;;;;;41.00;23.00;;;;;;;-0.05;94.11;99750.48;107649;275;98111;-52
2023/12/10 04:11:57;;;;;;;40.10;25.00;;;;;;;-0.05;93.96;99746.22;107431;275;154884;-56
2023/12/10 04:14:55;;;;;;;42.30;24.20;;;;;;;-0.04;93.95;99748.95;107524;275;105711;-55
2023/12/10 04:17:26;;;;;;;37.90;22.90;;;;;;;-0.02;93.86;99754.27;107506;275;154933;-53
2023/12/10 04:19:57;;;;;;;38.30;23.80;;;;;;;0.00;93.79;99756.55;107475;276;95610;-53
2023/12/10 04:22:29;;;;;;;36.80;23.10;;;;;;;-0.02;93.89;99759.60;107697;275;97851;-57
2023/12/10 04:25:00;;;;;;;38.80;23.20;;;;;;;-0.02;93.77;99755.05;107373;275;154808;-57
2023/12/10 04:27:37;;;;;;;39.30;23.10;;;;;;;-0.03;93.81;99751.77;107583;275;105031;-56
2023/12/10 04:30:12;;;;;;;40.60;24.30;;;;;;;-0.04;93.79;99757.14;107422;275;154915;-56
2023/12/10 04:32:50;;;;;;;39.20;23.30;;;;;;;-0.03;93.73;99761.98;107621;276;94904;-51
2023/12/10 04:35:26;;;;;;;40.50;23.50;;;;;;;-0.02;93.76;99763.32;107501;275;155075;-53
2023/12/10 04:38:00;;;;;;;;;;;;;;;-0.02;93.67;99755.01;107471;275;119882;-56
2023/12/10 04:40:34;;;;;;;36.50;21.50;;;;;;;-0.04;93.64;99751.67;107635;275;103511;-55
2023/12/10 04:43:09;;;;;;;35.20;21.40;;;;;;;-0.03;93.65;99749.63;107370;275;156179;-53
2023/12/10 04:45:44;;;;;;;38.40;22.80;;;;;;;-0.06;93.68;99745.44;107466;276;95468;-52
2023/12/10 04:48:20;;;;;;;34.80;20.50;;;;;;;-0.04;93.48;99747.36;107394;276;155219;-55
2023/12/10 04:50:53;;;;;;;39.40;22.40;;;;;;;-0.12;93.53;99752.02;107571;272;121327;-55
2023/12/10 04:53:24;;;;;;;36.30;21.10;;;;;;;-0.11;93.51;99750.67;107548;275;154909;-58
2023/12/10 04:55:59;;;;;;;38.30;21.20;;;;;;;-0.11;93.55;99746.98;107450;277;113296;-57
2023/12/10 04:58:34;;;;;;;38.40;22.20;;;;;;;-0.10;93.39;99746.90;107658;276;94937;-53
2023/12/10 05:01:07;;;;;;;33.50;20.50;;;;;;;-0.11;93.42;99749.11;107448;276;154563;-53
2023/12/10 05:03:40;;;;;;;40.10;22.10;;;;;;;-0.11;93.34;99757.83;107703;276;120818;-53
2023/12/10 05:06:11;;;;;;;35.90;20.40;;;;;;;-0.12;93.37;99759.62;107409;276;154839;-53
2023/12/10 05:08:46;;;;;;;33.80;20.00;;;;;;;-0.12;93.37;99759.14;107491;276;115338;-53
2023/12/10 05:11:17;;;;;;;34.70;20.50;;;;;;;-0.14;93.33;99760.52;106930;275;733465;-55
2023/12/10 05:13:50;;;;;;;36.90;22.50;;;;;;;-0.16;93.14;99757.20;107478;277;96953;-55
2023/12/10 05:16:21;;;;;;;34.10;20.50;;;;;;;-0.15;93.12;99755.66;107649;276;118853;-58
2023/12/10 05:18:59;;;;;;;34.10;20.60;;;;;;;-0.13;93.00;99759.42;107408;276;155046;-57
2023/12/10 05:21:38;;;;;;;31.60;19.90;;;;;;;-0.14;93.00;99762.50;107712;275;114637;-51
2023/12/10 05:24:09;;;;;;;33.60;20.40;;;;;;;-0.18;93.00;99760.93;107422;275;155948;-52
2023/12/10 05:26:41;;;;;;;34.60;20.40;;;;;;;-0.16;92.94;99761.23;107591;275;98031;-53
2023/12/10 05:29:12;;;;;;;37.30;20.80;;;;;;;-0.16;92.88;99760.75;107590;275;154909;-52
2023/12/10 05:31:44;;;;;;;36.20;21.30;;;;;;;-0.17;92.90;99758.02;107519;275;105669;-52
2023/12/10 05:34:17;;;;;;;35.20;21.50;;;;;;;-0.15;92.80;99760.77;107693;275;113973;-52
2023/12/10 05:36:49;;;;;;;32.70;18.80;;;;;;;-0.18;92.82;99763.23;107352;277;156049;-52
2023/12/10 05:39:22;;;;;;;34.90;19.80;;;;;;;-0.24;92.75;99759.65;107470;276;97055;-51
2023/12/10 05:41:54;;;;;;;30.90;19.20;;;;;;;-0.25;92.77;99759.39;107495;276;155086;-53
2023/12/10 05:44:28;;;;;;;28.40;17.70;;;;;;;-0.26;92.59;99768.88;107495;276;105347;-53
2023/12/10 05:46:59;;;;;;;28.00;17.10;;;;;;;-0.29;92.60;99771.10;107679;275;112112;-57
2023/12/10 05:49:38;;;;;;;27.80;17.20;;;;;;;-0.37;92.57;99782.82;107331;277;155517;-57
2023/12/10 05:52:18;;;;;;;30.20;18.00;;;;;;;-0.41;92.57;99787.42;107650;276;97492;-56
2023/12/10 05:54:49;;;;;;;28.20;16.70;;;;;;;-0.43;92.49;99791.30;107405;276;155292;-56
2023/12/10 05:57:22;;;;;;;25.40;16.20;;;;;;;-0.52;92.37;99799.14;107623;276;106741;-51
2023/12/10 05:59:55;;;;;;;27.50;16.40;;;;;;;-0.55;92.42;99807.20;107487;276;155989;-51
2023/12/10 06:02:28;;;;;;;28.40;16.80;;;;;;;-0.59;92.42;99805.95;107577;276;94126;-55
2023/12/10 06:05:04;;;;;;;28.70;17.10;;;;;;;-0.63;92.50;99797.95;107672;276;96587;-58
2023/12/10 06:07:42;;;;;;;26.40;16.30;;;;;;;-0.62;92.42;99801.25;107480;277;121037;-56
2023/12/10 06:10:18;;;;;;;28.60;17.50;;;;;;;-0.65;92.44;99811.98;107505;277;104512;-55
2023/12/10 06:12:50;;;;;;;27.00;17.00;;;;;;;-0.67;92.34;99821.33;107351;277;155144;-53
2023/12/10 06:15:24;;;;;;;26.40;16.00;;;;;;;-0.70;92.39;99820.52;107589;276;94524;-54
2023/12/10 06:18:03;;;;;;;26.70;16.30;;;;;;;-0.78;92.41;99825.48;107440;276;154566;-57
2023/12/10 06:20:34;;;;;;;26.90;16.50;;;;;;;-0.82;92.50;99827.90;107554;275;120423;-58
2023/12/10 06:23:06;;;;;;;30.60;18.10;;;;;;;-0.82;92.55;99834.84;107629;275;104475;-53
2023/12/10 06:25:40;;;;;;;29.10;16.80;;;;;;;-0.84;92.44;99838.68;107467;276;113574;-56
2023/12/10 06:28:12;;;;;;;27.30;16.40;;;;;;;-0.89;92.57;99850.25;107655;275;95766;-53
2023/12/10 06:30:47;;;;;;;31.50;18.00;;;;;;;-0.89;92.57;99853.33;107458;275;154813;-53
2023/12/10 06:33:22;;;;;;;29.10;17.30;;;;;;;-0.89;92.49;99847.45;107621;275;119953;-56
2023/12/10 06:36:00;;;;;;;27.70;16.70;;;;;;;-0.87;92.46;99842.35;107511;275;155065;-56
2023/12/10 06:38:33;;;;;;;27.20;15.80;;;;;;;-0.88;92.47;99839.61;107565;275;114174;-56
2023/12/10 06:41:07;;;;;;;26.30;15.60;;;;;;;-0.95;92.58;99841.20;107672;275;95644;-57
2023/12/10 06:43:41;;;;;;;27.90;17.10;;;;;;;-0.92;92.48;99838.85;107401;275;155556;-56
2023/12/10 06:46:17;;;;;;;26.60;15.70;;;;;;;-0.90;92.44;99840.09;107688;275;120135;-56
2023/12/10 06:48:51;;;;;;;26.40;15.50;;;;;;;-0.96;92.63;99842.43;107466;275;154702;-54
2023/12/10 06:51:25;;;;;;;28.00;15.80;;;;;;;-0.95;92.46;99857.68;107639;275;114442;-60
2023/12/10 06:54:01;;;;;;;27.40;15.70;;;;;;;-0.99;92.56;99857.17;107459;275;156113;-58
2023/12/10 06:56:40;;;;;;;24.30;15.00;;;;;;;-1.01;92.71;99846.34;107564;275;96404;-53
2023/12/10 06:59:25;;;;;;;29.90;16.60;;;;;;;-1.01;92.67;99841.92;107745;275;120356;-53
2023/12/10 07:01:58;;;;;;;31.00;17.30;;;;;;;-0.97;92.69;99840.58;107475;277;105420;-53
2023/12/10 07:04:33;;;;;;;32.90;17.30;;;;;;;-0.94;92.72;99846.83;107459;276;114776;-57
2023/12/10 07:07:05;;;;;;;33.70;18.20;;;;;;;-0.89;92.70;99849.20;107454;276;156292;-57
2023/12/10 07:09:38;;;;;;;38.00;20.50;;;;;;;-0.83;92.62;99852.39;107652;275;98367;-51
2023/12/10 07:12:14;;;;;;;30.70;17.00;;;;;;;-0.81;92.59;99851.38;107586;275;154984;-56
2023/12/10 07:14:46;;;;;;;31.20;17.50;;;;;;;-0.78;92.54;99847.03;107611;275;106249;-55
2023/12/10 07:17:26;;;;;;;33.00;17.50;;;;;;;-0.70;92.51;99842.23;107679;275;114914;-57
2023/12/10 07:19:59;;;;;;;31.10;17.40;;;;;;;-0.78;92.66;99837.83;107456;277;94180;-57
2023/12/10 07:22:31;;;;;;;32.90;18.50;;;;;;;-0.75;92.55;99842.35;107654;276;97210;-52
2023/12/10 07:25:05;;;;;;;33.00;18.00;;;;;;;-0.70;92.47;99848.27;107430;276;154673;-55
2023/12/10 07:27:39;;;;;;;32.10;18.80;;;;;;;-0.73;92.51;99848.68;107607;276;105525;-52
2023/12/10 07:30:17;;;;;;;33.50;19.80;;;;;;;-0.75;92.47;99856.83;107463;276;154970;-54
2023/12/10 07:32:49;;;;;;;34.30;19.10;;;;;;;-0.76;92.51;99862.90;107525;275;95787;-56
2023/12/10 07:35:24;;;;;;;34.50;19.20;;;;;;;-0.76;92.56;99867.05;107713;275;98006;-56
2023/12/10 07:37:55;;;;;;;32.20;18.80;;;;;;;-0.79;92.57;99871.73;107464;277;119841;-56
2023/12/10 07:40:29;;;;;;;34.60;19.50;;;;;;;-0.83;92.63;99879.46;107458;277;106477;-56
2023/12/10 07:43:11;;;;;;;34.00;19.20;;;;;;;-0.77;92.56;99880.73;107381;277;156023;-52
2023/12/10 07:45:47;;;;;;;36.10;20.60;;;;;;;-0.76;92.62;99879.20;107583;276;95070;-52
2023/12/10 07:48:22;;;;;;;37.20;20.40;;;;;;;-0.68;92.49;99887.85;107538;276;154546;-52
2023/12/10 07:50:53;;;;;;;36.40;19.40;;;;;;;-0.62;92.43;99897.09;107446;276;120029;-53
2023/12/10 07:53:25;;;;;;;36.70;19.80;;;;;;;-0.66;92.46;99892.98;107634;275;105014;-53
2023/12/10 07:56:00;;;;;;;34.30;20.20;;;;;;;-0.67;92.50;99890.06;107414;277;112950;-53
2023/12/10 07:58:34;;;;;;;39.90;21.30;;;;;;;-0.64;92.33;99889.63;107527;276;93245;-57
2023/12/10 08:01:09;;;;;;;37.50;21.40;;;;;;;-0.62;92.29;99891.06;107268;278;154613;-57
2023/12/10 08:03:46;;;;;;;35.30;20.80;;;;;;;-0.54;92.28;99897.69;107501;276;119178;-53
2023/12/10 08:06:21;;;;;;;38.80;20.70;;;;;;;-0.47;92.17;99894.58;107493;276;155913;-56
2023/12/10 08:08:55;;;;;;;37.70;21.80;;;;;;;-0.42;92.13;99895.52;107566;276;113739;-57
2023/12/10 08:11:29;;;;;;;33.90;20.90;;;;;;;-0.43;91.79;99908.42;107689;276;93546;-57
2023/12/10 08:14:05;;;;;;;37.10;20.30;;;;;;;-0.47;91.65;99912.42;107491;277;97221;-58
2023/12/10 08:16:36;;;;;;;35.50;19.80;;;;;;;-0.52;91.71;99910.73;107601;276;120876;-53
2023/12/10 08:19:11;;;;;;;33.30;19.80;;;;;;;-0.48;91.79;99903.36;107460;276;154883;-54
2023/12/10 08:21:48;;;;;;;38.10;21.60;;;;;;;-0.53;91.83;99903.93;107638;275;113317;-53
2023/12/10 08:24:20;;;;;;;37.90;21.60;;;;;;;-0.46;91.67;99902.23;107525;275;155959;-53
2023/12/10 08:26:52;;;;;;;36.00;22.00;;;;;;;-0.41;91.63;99901.16;107598;276;97204;-57
2023/12/10 08:29:23;;;;;;;35.80;20.70;;;;;;;-0.41;91.56;99899.75;107620;276;120704;-56
2023/12/10 08:31:57;;;;;;;35.90;18.90;;;;;;;-0.40;91.59;99896.84;107513;276;107206;-55
2023/12/10 08:34:29;;;;;;;32.80;19.20;;;;;;;-0.39;91.46;99896.35;107631;275;115251;-55
2023/12/10 08:36:59;;;;;;;36.70;20.60;;;;;;;-0.41;91.50;99892.44;107518;275;155723;-52
2023/12/10 08:39:33;;;;;;;33.80;20.60;;;;;;;-0.32;91.45;99889.87;107636;275;96530;-53
2023/12/10 08:42:07;;;;;;;36.30;21.10;;;;;;;-0.24;91.30;99882.14;107328;277;155648;-53
2023/12/10 08:44:40;;;;;;;34.20;20.50;;;;;;;-0.11;91.21;99879.85;107551;276;106128;-53
2023/12/10 08:47:17;;;;;;;37.60;22.10;;;;;;;-0.02;91.05;99876.84;107643;276;115178;-56
2023/12/10 08:49:54;;;;;;;32.90;19.80;;;;;;;0.06;90.93;99872.21;107400;276;155415;-56
2023/12/10 08:52:27;;;;;;;37.10;21.60;;;;;;;0.16;90.94;99872.16;107677;276;98123;-57
2023/12/10 08:54:59;;;;;;;36.80;21.50;;;;;;;0.21;90.45;99876.81;107462;276;153851;-59
2023/12/10 08:57:32;;;;;;;36.40;21.30;;;;;;;0.29;90.11;99877.20;107583;275;105209;-52
2023/12/10 09:00:10;;;;;;;36.00;21.40;;;;;;;0.30;90.11;99877.43;107559;275;154993;-53
2023/12/10 09:02:42;;;;;;;36.80;21.60;;;;;;;0.33;90.19;99887.65;107480;276;96266;-52
2023/12/10 09:05:14;;;;;;;33.90;20.50;;;;;;;0.40;90.31;99890.41;107720;275;96764;-52
2023/12/10 09:07:51;;;;;;;39.70;22.90;;;;;;;0.43;89.71;99888.65;107386;276;155170;-53
2023/12/10 09:10:29;;;;;;;35.80;22.30;;;;;;;0.47;89.78;99888.10;107688;276;106018;-53
2023/12/10 09:13:01;;;;;;;34.50;21.20;;;;;;;0.57;89.70;99889.17;107457;276;153743;-58
2023/12/10 09:15:32;;;;;;;43.90;24.90;;;;;;;0.56;89.69;99889.77;107604;276;92026;-56
2023/12/10 09:18:06;;;;;;;41.00;24.50;;;;;;;0.56;89.42;99896.52;107483;276;153865;-58
2023/12/10 09:20:44;;;;;;;46.00;25.70;;;;;;;0.57;89.41;99896.95;107559;275;121639;-60
2023/12/10 09:23:17;;;;;;;46.80;26.50;;;;;;;0.52;89.35;99887.84;107717;275;105078;-59
2023/12/10 09:25:50;;;;;;;38.10;23.70;;;;;;;0.57;89.28;99883.33;107353;275;155601;-58
2023/12/10 09:28:25;;;;;;;43.60;25.30;;;;;;;0.62;89.05;99881.64;107688;275;95887;-52
2023/12/10 09:30:58;;;;;;;46.70;27.00;;;;;;;0.64;88.98;99878.44;107430;275;154146;-51
2023/12/10 09:33:30;;;;;;;43.40;25.70;;;;;;;0.65;88.67;99883.64;107659;275;120112;-53
2023/12/10 09:36:04;;;;;;;41.70;25.70;;;;;;;0.58;88.39;99876.48;107486;275;154471;-53
2023/12/10 09:38:40;;;;;;;40.80;25.50;;;;;;;0.62;88.68;99871.76;107570;275;114653;-56
2023/12/10 09:41:12;;;;;;;40.80;25.10;;;;;;;0.59;88.35;99875.35;107645;275;95275;-56
2023/12/10 09:43:46;;;;;;;44.30;26.40;;;;;;;0.47;88.36;99879.07;107340;275;154368;-52
2023/12/10 09:46:18;;;;;;;42.60;26.00;;;;;;;0.52;88.51;99887.96;107623;275;120716;-53
2023/12/10 09:48:59;;;;;;;45.90;25.90;;;;;;;0.53;88.24;99886.15;107415;275;154745;-55
2023/12/10 09:51:31;;;;;;;46.00;26.30;;;;;;;0.56;88.27;99878.98;107611;275;112845;-52
2023/12/10 09:54:07;;;;;;;46.30;25.80;;;;;;;0.57;88.32;99880.08;107302;273;155729;-51
2023/12/10 09:56:43;;;;;;;44.30;26.90;;;;;;;0.65;88.17;99878.40;107602;276;97563;-55
2023/12/10 09:59:14;;;;;;;44.60;27.00;;;;;;;0.64;87.66;99874.19;107684;276;120721;-54
2023/12/10 10:01:50;;;;;;;47.20;27.70;;;;;;;0.62;87.89;99880.95;107447;276;154360;-58
2023/12/10 10:04:26;;;;;;;47.50;27.00;;;;;;;0.67;87.83;99873.95;107667;275;113883;-57
2023/12/10 10:07:04;;;;;;;47.40;28.60;;;;;;;0.69;87.85;99879.37;107422;275;154822;-57
2023/12/10 10:09:40;;;;;;;48.20;27.90;;;;;;;0.69;87.48;99876.71;107609;275;96051;-58
2023/12/10 10:12:13;;;;;;;46.00;26.80;;;;;;;0.75;87.74;99874.79;107516;275;154808;-56
2023/12/10 10:14:57;;;;;;;43.70;25.90;;;;;;;0.83;87.60;99871.58;107559;276;105885;-56
2023/12/10 10:17:31;;;;;;;46.70;27.40;;;;;;;0.91;87.66;99871.69;107656;276;114864;-57
2023/12/10 10:20:09;;;;;;;46.20;28.40;;;;;;;0.93;87.57;99874.52;107415;271;96277;-58
2023/12/10 10:22:43;;;;;;;49.50;27.50;;;;;;;0.91;87.60;99878.61;107435;277;97478;-58
2023/12/10 10:25:15;;;;;;;47.40;29.00;;;;;;;0.95;87.82;99879.84;107319;277;154925;-57
2023/12/10 10:27:50;;;;;;;49.40;30.00;;;;;;;0.97;87.68;99874.80;107452;276;104139;-53
2023/12/10 10:30:23;;;;;;;42.80;27.00;;;;;;;0.97;87.45;99866.52;107295;278;154388;-53
2023/12/10 10:32:56;;;;;;;49.80;28.90;;;;;;;0.91;87.16;99862.29;107457;277;94101;-53
2023/12/10 10:35:28;;;;;;;53.90;31.80;;;;;;;0.94;86.96;99858.84;107424;277;97416;-53
2023/12/10 10:38:00;;;;;;;51.60;29.60;;;;;;;0.95;87.04;99850.18;107435;277;118890;-52
2023/12/10 10:40:33;;;;;;;45.70;30.30;;;;;;;1.06;86.89;99852.89;107473;277;104572;-52
2023/12/10 10:43:09;;;;;;;48.00;29.30;;;;;;;0.99;86.66;99856.02;107313;279;154328;-58
2023/12/10 10:45:45;;;;;;;46.40;27.80;;;;;;;1.03;86.96;99857.94;107416;277;95610;-58
2023/12/10 10:48:17;;;;;;;48.80;28.20;;;;;;;1.07;87.12;99852.46;107336;277;156002;-56
2023/12/10 10:50:50;;;;;;;50.70;30.40;;;;;;;1.16;86.83;99847.92;107490;277;119578;-57
2023/12/10 10:53:25;;;;;;;46.60;29.10;;;;;;;1.17;86.70;99848.70;107479;277;106202;-58
2023/12/10 10:55:57;;;;;;;43.90;28.50;;;;;;;1.09;86.28;99848.02;107332;276;155176;-59
2023/12/10 10:58:30;;;;;;;42.00;26.80;;;;;;;1.09;86.39;99851.41;107463;277;92505;-50
2023/12/10 11:01:27;;;;;;;44.60;28.00;;;;;;;1.02;86.39;99851.53;107336;277;154662;-53
2023/12/10 11:04:06;;;;;;;45.00;28.00;;;;;;;0.93;85.90;99850.55;107380;277;119591;-57
2023/12/10 11:06:44;;;;;;;43.80;27.20;;;;;;;0.86;86.00;99847.11;107401;279;155836;-56
2023/12/10 11:09:21;;;;;;;45.80;28.60;;;;;;;0.86;86.32;99847.86;107478;277;113793;-56
2023/12/10 11:11:54;;;;;;;45.90;29.00;;;;;;;0.86;86.25;99850.34;107291;277;155756;-57
2023/12/10 11:14:29;;;;;;;46.60;28.40;;;;;;;0.87;86.14;99852.02;107453;277;97813;-56
2023/12/10 11:17:06;;;;;;;40.90;26.10;;;;;;;0.88;86.29;99848.27;107469;277;121112;-57
2023/12/10 11:19:39;;;;;;;44.70;27.40;;;;;;;0.95;86.26;99850.23;107289;277;153187;-58
2023/12/10 11:22:14;;;;;;;46.40;27.90;;;;;;;0.99;86.18;99859.56;107478;277;112294;-59
2023/12/10 11:24:49;;;;;;;43.70;26.80;;;;;;;1.02;86.01;99858.58;107314;277;155042;-59
2023/12/10 11:27:26;;;;;;;45.60;26.70;;;;;;;1.00;85.91;99857.19;107514;277;95354;-53
2023/12/10 11:30:03;;;;;;;45.80;28.70;;;;;;;0.98;86.20;99860.54;107312;277;154117;-53
2023/12/10 11:32:38;;;;;;;48.90;28.10;;;;;;;0.97;86.26;99867.02;107480;277;105625;-56
2023/12/10 11:35:09;;;;;;;45.90;29.60;;;;;;;1.02;86.13;99874.39;107474;277;114131;-56
2023/12/10 11:37:45;;;;;;;46.00;28.50;;;;;;;0.94;86.11;99875.34;107303;277;154789;-60
2023/12/10 11:40:19;;;;;;;41.00;25.80;;;;;;;0.95;86.32;99874.73;107490;277;97850;-57
2023/12/10 11:42:51;;;;;;;42.30;28.20;;;;;;;0.92;86.07;99874.77;107328;277;154717;-55
2023/12/10 11:45:23;;;;;;;48.20;29.80;;;;;;;0.86;86.21;99875.00;107481;277;105021;-53
2023/12/10 11:47:56;;;;;;;46.60;28.90;;;;;;;0.88;86.14;99877.33;107386;276;154576;-57